Time;durP1;ratioP1;P1;durP2;ratioP2;P2;SDS_P1;SDS_P2;PMS_P1;PMS_P2;Temp;Humidity;BMP_temperature;BMP_pressure;BME280_temperature;BME280_humidity;BME280_pressure;Samples;Min_cycle;Max_cycle;Signal;HPM_P1;HPM_P2
2024/02/02 00:00:33;;;;;;;19.80;4.75;;;;;;;4.04;100.00;102646.38;4907979;29;20090;-75
2024/02/02 00:02:59;;;;;;;23.15;4.97;;;;;;;4.03;100.00;102653.50;4906671;29;20085;-76
2024/02/02 00:05:24;;;;;;;14.52;3.97;;;;;;;4.03;100.00;102652.69;4921897;29;20084;-75
2024/02/02 00:07:50;;;;;;;20.98;3.78;;;;;;;4.03;100.00;102637.59;4904781;29;20465;-75
2024/02/02 00:10:16;;;;;;;23.42;4.82;;;;;;;3.99;100.00;102633.63;4920383;29;20106;-76
2024/02/02 00:12:42;;;;;;;17.83;4.57;;;;;;;4.00;100.00;102630.00;4905596;29;20609;-76
2024/02/02 00:15:09;;;;;;;26.95;5.03;;;;;;;3.97;100.00;102625.06;4923939;29;20039;-75
2024/02/02 00:17:34;;;;;;;21.55;4.03;;;;;;;3.96;100.00;102626.06;4903656;29;20175;-75
2024/02/02 00:20:00;;;;;;;18.73;3.92;;;;;;;3.97;100.00;102635.66;4926342;29;20043;-74
2024/02/02 00:22:26;;;;;;;17.13;4.18;;;;;;;3.98;100.00;102632.00;4917230;29;20047;-75
2024/02/02 00:24:51;;;;;;;22.95;3.55;;;;;;;3.94;100.00;102633.38;4907850;29;20035;-74
2024/02/02 00:27:18;;;;;;;17.83;4.55;;;;;;;3.92;100.00;102634.53;4896945;29;20055;-74
2024/02/02 00:29:45;;;;;;;18.40;4.13;;;;;;;3.95;100.00;102636.84;4926390;29;20034;-76
2024/02/02 00:32:15;;;;;;;15.90;3.72;;;;;;;3.94;100.00;102638.69;4926897;29;20154;-76
2024/02/02 00:34:40;;;;;;;22.13;4.65;;;;;;;3.93;100.00;102642.34;4897871;29;20032;-73
2024/02/02 00:37:07;;;;;;;23.25;4.35;;;;;;;3.91;100.00;102643.50;4921994;29;20087;-75
2024/02/02 00:39:32;;;;;;;26.77;3.95;;;;;;;3.93;100.00;102646.78;4904047;29;20046;-75
2024/02/02 00:41:59;;;;;;;18.55;4.13;;;;;;;3.94;100.00;102643.16;4903907;29;20050;-76
2024/02/02 00:44:25;;;;;;;16.50;3.67;;;;;;;3.94;100.00;102646.63;4920964;29;20050;-75
2024/02/02 00:46:50;;;;;;;26.75;3.85;;;;;;;3.95;100.00;102656.22;4905648;29;20039;-75
2024/02/02 00:49:16;;;;;;;17.70;3.60;;;;;;;3.95;100.00;102661.53;4922294;29;20254;-73
2024/02/02 00:51:42;;;;;;;13.10;3.20;;;;;;;3.94;100.00;102665.19;4920700;29;20047;-76
2024/02/02 00:54:08;;;;;;;22.35;3.90;;;;;;;3.93;100.00;102663.53;4920391;29;20043;-75
2024/02/02 00:56:33;;;;;;;18.20;3.75;;;;;;;3.95;100.00;102660.72;4901407;29;20040;-73
2024/02/02 00:58:59;;;;;;;20.27;4.50;;;;;;;3.94;100.00;102662.53;4920675;29;20532;-74
2024/02/02 01:01:25;;;;;;;20.92;4.38;;;;;;;3.93;100.00;102652.09;4923960;28;20039;-74
2024/02/02 01:03:51;;;;;;;18.45;3.90;;;;;;;3.91;100.00;102643.50;4902873;29;20135;-74
2024/02/02 01:06:17;;;;;;;17.95;3.63;;;;;;;3.91;100.00;102639.03;4904980;29;20042;-75
2024/02/02 01:08:43;;;;;;;18.20;3.58;;;;;;;3.93;100.00;102641.47;4923082;29;20032;-75
2024/02/02 01:11:08;;;;;;;20.60;4.38;;;;;;;3.94;100.00;102637.84;4906935;29;20039;-74
2024/02/02 01:13:34;;;;;;;13.02;3.17;;;;;;;3.93;100.00;102626.44;4908705;29;20114;-75
2024/02/02 01:15:59;;;;;;;15.82;3.63;;;;;;;3.93;100.00;102631.72;4910757;29;20513;-74
2024/02/02 01:18:25;;;;;;;18.50;3.65;;;;;;;3.95;100.00;102620.94;4909036;29;20486;-74
2024/02/02 01:20:51;;;;;;;17.92;3.58;;;;;;;3.94;100.00;102620.13;4925322;29;20122;-74
2024/02/02 01:23:17;;;;;;;19.60;3.67;;;;;;;3.96;100.00;102622.59;4924931;29;20047;-74
2024/02/02 01:25:42;;;;;;;15.70;3.67;;;;;;;3.96;100.00;102618.09;4921059;29;20039;-74
2024/02/02 01:28:08;;;;;;;16.83;3.10;;;;;;;3.96;100.00;102620.75;4925311;29;20835;-73
2024/02/02 01:30:34;;;;;;;16.85;3.35;;;;;;;3.97;100.00;102613.63;4922413;29;20123;-76
2024/02/02 01:33:00;;;;;;;17.80;3.38;;;;;;;3.97;100.00;102617.09;4923125;29;20032;-75
2024/02/02 01:35:26;;;;;;;15.93;3.38;;;;;;;3.99;100.00;102615.06;4922570;29;20044;-73
2024/02/02 01:37:52;;;;;;;14.43;3.45;;;;;;;4.01;100.00;102614.94;4923184;29;20759;-75
2024/02/02 01:40:19;;;;;;;13.35;2.97;;;;;;;4.01;100.00;102607.78;4926376;29;20102;-75
2024/02/02 01:42:45;;;;;;;16.58;2.88;;;;;;;4.02;100.00;102606.78;4888623;29;20038;-74
2024/02/02 01:45:11;;;;;;;18.85;3.80;;;;;;;4.02;100.00;102604.13;4931387;23;20051;-74
2024/02/02 01:47:36;;;;;;;14.52;4.50;;;;;;;4.05;100.00;102600.28;4921524;28;20046;-74
2024/02/02 01:50:02;;;;;;;16.35;2.97;;;;;;;4.07;100.00;102598.31;4925683;28;20044;-74
2024/02/02 01:52:29;;;;;;;;;;;;;;;4.08;100.00;102587.50;4932192;28;20050;-72
2024/02/02 01:54:55;;;;;;;24.60;3.42;;;;;;;4.07;100.00;102591.16;4931445;28;20289;-72
2024/02/02 01:57:21;;;;;;;17.95;3.45;;;;;;;4.08;100.00;102584.84;4934258;28;20086;-73
2024/02/02 01:59:47;;;;;;;16.35;3.30;;;;;;;4.10;100.00;102590.78;4932580;28;20146;-72
2024/02/02 02:02:13;;;;;;;17.35;3.33;;;;;;;4.14;100.00;102582.50;4919587;29;20039;-73
2024/02/02 02:04:40;;;;;;;13.52;3.15;;;;;;;4.16;100.00;102583.13;4930560;28;21476;-73
2024/02/02 02:07:06;;;;;;;19.05;3.35;;;;;;;4.16;100.00;102575.16;4936269;28;20035;-74
2024/02/02 02:09:33;;;;;;;15.77;3.63;;;;;;;4.17;100.00;102580.28;4908832;28;20050;-74
2024/02/02 02:12:00;;;;;;;16.98;2.92;;;;;;;4.19;100.00;102582.75;4931601;28;20468;-75
2024/02/02 02:14:26;;;;;;;15.82;3.72;;;;;;;4.20;100.00;102581.72;4925650;28;20039;-74
2024/02/02 02:16:52;;;;;;;13.43;3.05;;;;;;;4.21;100.00;102592.19;4922557;29;20122;-74
2024/02/02 02:19:17;;;;;;;22.60;3.40;;;;;;;4.24;100.00;102588.34;4937619;28;20039;-74
2024/02/02 02:21:43;;;;;;;13.23;2.40;;;;;;;4.26;100.00;102588.97;4912502;28;20043;-74
2024/02/02 02:24:09;;;;;;;18.95;3.25;;;;;;;4.26;100.00;102584.47;4933259;28;20055;-74
2024/02/02 02:26:36;;;;;;;18.35;3.53;;;;;;;4.28;100.00;102579.03;4935121;28;20556;-73
2024/02/02 02:29:04;;;;;;;18.23;3.30;;;;;;;4.29;100.00;102568.22;4939075;28;20118;-74
2024/02/02 02:31:29;;;;;;;23.13;3.63;;;;;;;4.28;100.00;102565.75;4933560;28;20119;-73
2024/02/02 02:33:55;;;;;;;20.25;3.67;;;;;;;4.29;100.00;102562.09;4935430;28;20115;-73
2024/02/02 02:36:21;;;;;;;18.27;3.00;;;;;;;4.30;100.00;102547.81;4935956;28;20035;-74
2024/02/02 02:38:48;;;;;;;15.65;3.47;;;;;;;4.30;100.00;102547.81;4937700;28;20053;-74
2024/02/02 02:41:14;;;;;;;14.55;3.42;;;;;;;4.32;100.00;102536.00;4933701;28;20031;-73
2024/02/02 02:43:40;;;;;;;17.33;3.78;;;;;;;4.34;100.00;102535.84;4932183;28;20071;-73
2024/02/02 02:46:07;;;;;;;17.10;3.47;;;;;;;4.34;100.00;102536.66;4943324;28;20132;-73
2024/02/02 02:48:33;;;;;;;17.83;3.95;;;;;;;4.34;100.00;102539.31;4937227;28;20095;-73
2024/02/02 02:50:59;;;;;;;15.45;3.85;;;;;;;4.34;100.00;102536.66;4933648;28;20066;-73
2024/02/02 02:53:27;;;;;;;17.05;3.58;;;;;;;4.32;100.00;102529.88;4910016;28;20043;-73
2024/02/02 02:55:53;;;;;;;24.40;4.63;;;;;;;4.32;100.00;102535.19;4935002;28;21083;-72
2024/02/02 02:58:18;;;;;;;14.02;3.90;;;;;;;4.33;100.00;102528.88;4931558;28;20039;-73
2024/02/02 03:00:44;;;;;;;16.45;3.55;;;;;;;4.33;100.00;102535.00;4932364;28;20036;-73
2024/02/02 03:03:10;;;;;;;18.52;4.50;;;;;;;4.34;100.00;102535.84;4938882;28;20049;-74
2024/02/02 03:05:37;;;;;;;16.23;4.97;;;;;;;4.36;100.00;102541.78;4941519;28;20034;-74
2024/02/02 03:08:06;;;;;;;18.10;4.22;;;;;;;4.36;100.00;102542.59;4931961;28;20043;-74
2024/02/02 03:10:33;;;;;;;14.65;4.43;;;;;;;4.37;100.00;102532.81;4942782;28;20113;-73
2024/02/02 03:13:00;;;;;;;19.25;4.50;;;;;;;4.36;100.00;102531.16;4916660;29;20051;-73
2024/02/02 03:15:26;;;;;;;16.15;3.92;;;;;;;4.39;100.00;102536.09;4929662;28;20407;-74
2024/02/02 03:17:51;;;;;;;17.77;3.88;;;;;;;4.42;100.00;102524.31;4942541;28;20046;-73
2024/02/02 03:20:17;;;;;;;20.20;4.10;;;;;;;4.42;100.00;102527.78;4935012;28;20166;-73
2024/02/02 03:22:43;;;;;;;19.83;4.40;;;;;;;4.42;100.00;102526.97;4931339;28;20122;-73
2024/02/02 03:25:09;;;;;;;24.55;4.30;;;;;;;4.44;100.00;102519.63;4930839;28;20574;-74
2024/02/02 03:27:35;;;;;;;17.13;4.25;;;;;;;4.44;100.00;102517.81;4912225;28;20039;-73
2024/02/02 03:30:03;;;;;;;19.48;3.97;;;;;;;4.45;100.00;102502.69;4935850;28;20039;-73
2024/02/02 03:32:29;;;;;;;15.23;4.97;;;;;;;4.45;100.00;102505.34;4943069;28;20027;-73
2024/02/02 03:34:55;;;;;;;19.08;4.85;;;;;;;4.46;100.00;102494.56;4882723;29;20035;-73
2024/02/02 03:37:21;;;;;;;17.23;3.47;;;;;;;4.48;100.00;102505.00;4937805;28;20036;-73
2024/02/02 03:39:46;;;;;;;20.20;3.97;;;;;;;4.47;100.00;102498.88;4920984;28;20048;-72
2024/02/02 03:42:12;;;;;;;16.65;4.18;;;;;;;4.49;100.00;102496.84;4936843;28;20394;-74
2024/02/02 03:44:38;;;;;;;19.90;4.55;;;;;;;4.50;100.00;102506.44;4934084;28;20043;-73
2024/02/02 03:47:04;;;;;;;30.02;5.03;;;;;;;4.52;100.00;102499.13;4939340;28;20035;-73
2024/02/02 03:49:32;;;;;;;18.42;4.22;;;;;;;4.53;100.00;102484.84;4933337;28;20047;-74
2024/02/02 03:52:00;;;;;;;19.88;3.95;;;;;;;4.54;100.00;102493.63;4935034;28;20040;-73
2024/02/02 03:54:26;;;;;;;18.00;3.55;;;;;;;4.54;100.00;102489.16;4924727;29;20035;-73
2024/02/02 03:56:52;;;;;;;26.80;4.65;;;;;;;4.56;100.00;102484.47;4920440;28;20039;-74
2024/02/02 03:59:17;;;;;;;16.80;4.22;;;;;;;4.59;100.00;102494.72;4935820;28;20544;-73
2024/02/02 04:01:43;;;;;;;21.55;4.90;;;;;;;4.58;100.00;102481.63;4941365;28;20047;-73
2024/02/02 04:04:09;;;;;;;23.65;4.97;;;;;;;4.60;100.00;102484.91;4932998;28;20056;-73
2024/02/02 04:06:34;;;;;;;22.33;5.07;;;;;;;4.58;100.00;102482.44;4933549;28;20098;-73
2024/02/02 04:09:00;;;;;;;21.23;4.40;;;;;;;4.59;100.00;102468.16;4930781;28;20485;-73
2024/02/02 04:11:27;;;;;;;19.10;4.55;;;;;;;4.60;100.00;102464.50;4944592;28;20035;-73
2024/02/02 04:13:52;;;;;;;19.05;4.68;;;;;;;4.63;100.00;102469.44;4933682;28;20031;-73
2024/02/02 04:16:18;;;;;;;18.80;5.38;;;;;;;4.64;100.00;102463.13;4940815;28;20035;-73
2024/02/02 04:18:44;;;;;;;17.35;5.25;;;;;;;4.64;100.00;102460.47;4928513;28;20336;-74
2024/02/02 04:21:11;;;;;;;30.02;6.70;;;;;;;4.66;100.00;102460.28;4932349;28;20461;-74
2024/02/02 04:23:37;;;;;;;21.95;5.57;;;;;;;4.64;100.00;102444.56;4928923;28;20043;-73
2024/02/02 04:26:03;;;;;;;17.80;4.63;;;;;;;4.64;100.00;102449.88;4939613;28;20046;-73
2024/02/02 04:28:29;;;;;;;19.13;5.25;;;;;;;4.65;100.00;102435.56;4933376;28;20485;-73
2024/02/02 04:30:54;;;;;;;21.35;5.97;;;;;;;4.65;100.00;102432.91;4938757;28;20176;-73
2024/02/02 04:33:20;;;;;;;19.65;5.30;;;;;;;4.64;100.00;102436.59;4943491;28;20039;-73
2024/02/02 04:35:46;;;;;;;23.05;6.25;;;;;;;4.65;100.00;102443.53;4940060;28;20070;-73
2024/02/02 04:38:11;;;;;;;24.90;6.22;;;;;;;4.65;100.00;102440.88;4930474;28;20378;-73
2024/02/02 04:40:37;;;;;;;24.90;6.80;;;;;;;4.63;100.00;102423.53;4922689;28;20708;-73
2024/02/02 04:43:03;;;;;;;22.33;5.95;;;;;;;4.65;100.00;102435.56;4935103;28;20039;-73
2024/02/02 04:45:30;;;;;;;26.10;5.90;;;;;;;4.65;100.00;102414.34;4940073;28;20040;-73
2024/02/02 04:47:56;;;;;;;25.40;6.68;;;;;;;4.65;100.00;102417.00;4898339;29;20049;-73
2024/02/02 04:50:22;;;;;;;23.88;6.32;;;;;;;4.64;100.00;102409.25;4925425;28;20039;-73
2024/02/02 04:52:47;;;;;;;23.13;6.43;;;;;;;4.63;100.00;102411.06;4930594;28;20110;-73
2024/02/02 04:55:14;;;;;;;22.83;6.88;;;;;;;4.60;100.00;102406.13;4940064;28;20082;-73
2024/02/02 04:57:40;;;;;;;;;;;;;;;4.60;100.00;102411.44;4932923;28;20524;-73
2024/02/02 05:00:06;;;;;;;22.60;6.82;;;;;;;4.60;100.00;102419.38;4936956;28;19942;-73
2024/02/02 05:02:32;;;;;;;25.88;7.88;;;;;;;4.60;100.00;102408.78;4936361;28;20497;-74
2024/02/02 05:04:57;;;;;;;19.92;6.97;;;;;;;4.60;100.00;102400.81;4936147;28;20038;-73
2024/02/02 05:07:23;;;;;;;23.02;7.45;;;;;;;4.58;100.00;102408.16;4925240;29;20047;-73
2024/02/02 05:09:49;;;;;;;21.38;8.13;;;;;;;4.60;100.00;102394.69;4939727;28;20846;-74
2024/02/02 05:12:15;;;;;;;25.67;8.75;;;;;;;4.60;100.00;102384.06;4932823;29;20035;-73
2024/02/02 05:14:42;;;;;;;22.65;7.65;;;;;;;4.58;100.00;102380.78;4937388;28;20027;-73
2024/02/02 05:17:08;;;;;;;20.60;8.05;;;;;;;4.61;100.00;102377.78;4921018;29;20043;-73
2024/02/02 05:19:34;;;;;;;25.58;8.82;;;;;;;4.63;100.00;102367.78;4931968;28;20035;-74
2024/02/02 05:21:59;;;;;;;29.67;9.45;;;;;;;4.63;100.00;102373.91;4941186;28;20058;-73
2024/02/02 05:24:25;;;;;;;25.33;9.27;;;;;;;4.65;100.00;102366.56;4935141;28;20142;-74
2024/02/02 05:26:51;;;;;;;26.15;8.95;;;;;;;4.66;100.00;102362.91;4944212;28;20023;-74
2024/02/02 05:29:16;;;;;;;34.08;10.23;;;;;;;4.66;100.00;102351.47;4910499;29;20039;-73
2024/02/02 05:31:42;;;;;;;28.67;10.18;;;;;;;4.65;100.00;102365.75;4932416;28;20050;-73
2024/02/02 05:34:08;;;;;;;30.38;10.13;;;;;;;4.64;100.00;102372.91;4923209;29;20047;-73
2024/02/02 05:36:33;;;;;;;20.67;9.43;;;;;;;4.64;100.00;102367.59;4938581;28;20520;-73
2024/02/02 05:38:59;;;;;;;30.50;11.50;;;;;;;4.65;100.00;102365.75;4935031;28;20035;-74
2024/02/02 05:41:25;;;;;;;29.73;11.48;;;;;;;4.64;100.00;102342.88;4939059;28;20039;-73
2024/02/02 05:43:50;;;;;;;27.35;11.98;;;;;;;4.62;100.00;102329.81;4934681;28;20066;-73
2024/02/02 05:46:16;;;;;;;30.67;12.23;;;;;;;4.61;100.00;102317.56;4941959;28;20036;-74
2024/02/02 05:48:42;;;;;;;30.92;12.88;;;;;;;4.62;100.00;102308.59;4934017;28;20027;-73
2024/02/02 05:51:07;;;;;;;33.03;13.88;;;;;;;4.60;100.00;102301.81;4917110;29;20143;-73
2024/02/02 05:53:33;;;;;;;37.03;12.27;;;;;;;4.60;100.00;102299.16;4916981;29;20043;-73
2024/02/02 05:56:01;;;;;;;32.92;12.13;;;;;;;4.61;100.00;102314.91;4937508;28;20035;-73
2024/02/02 05:58:27;;;;;;;31.20;12.43;;;;;;;4.61;100.00;102304.31;4940998;28;20074;-73
2024/02/02 06:00:53;;;;;;;32.67;12.15;;;;;;;4.60;100.00;102318.56;4941218;28;20040;-73
2024/02/02 06:03:20;;;;;;;31.40;11.60;;;;;;;4.60;100.00;102337.13;4938403;28;20074;-73
2024/02/02 06:05:46;;;;;;;32.47;12.07;;;;;;;4.61;100.00;102349.41;4938540;28;20054;-73
2024/02/02 06:08:13;;;;;;;28.40;11.77;;;;;;;4.61;100.00;102344.09;4922553;29;20031;-73
2024/02/02 06:10:42;;;;;;;30.35;11.98;;;;;;;4.60;100.00;102331.00;4936524;28;20035;-73
2024/02/02 06:13:08;;;;;;;31.63;12.60;;;;;;;4.59;100.00;102322.22;4941876;28;20069;-73
2024/02/02 06:15:34;;;;;;;28.63;12.63;;;;;;;4.57;100.00;102324.25;4937936;28;20075;-73
2024/02/02 06:18:00;;;;;;;26.73;12.23;;;;;;;4.56;100.00;102325.28;4940579;28;20066;-74
2024/02/02 06:20:25;;;;;;;33.65;11.95;;;;;;;4.58;100.00;102327.72;4946628;28;20085;-73
2024/02/02 06:22:51;;;;;;;27.98;11.18;;;;;;;4.56;100.00;102325.28;4932412;28;20119;-73
2024/02/02 06:25:17;;;;;;;30.42;11.93;;;;;;;4.57;100.00;102313.66;4931006;28;20038;-74
2024/02/02 06:27:44;;;;;;;23.77;12.23;;;;;;;4.59;100.00;102298.34;4945964;28;20070;-73
2024/02/02 06:30:11;;;;;;;31.27;12.32;;;;;;;4.57;100.00;102300.38;4938826;28;20122;-73
2024/02/02 06:32:38;;;;;;;28.58;11.32;;;;;;;4.58;100.00;102312.63;4946749;28;20105;-73
2024/02/02 06:35:05;;;;;;;34.10;11.20;;;;;;;4.57;100.00;102305.69;4936482;28;20086;-73
2024/02/02 06:37:31;;;;;;;30.10;10.98;;;;;;;4.58;100.00;102296.72;4937177;28;20783;-73
2024/02/02 06:39:57;;;;;;;29.17;11.80;;;;;;;4.61;100.00;102295.53;4936411;28;20034;-73
2024/02/02 06:42:27;;;;;;;29.73;10.52;;;;;;;4.61;100.00;102299.00;4926136;29;20035;-74
2024/02/02 06:44:54;;;;;;;28.33;11.18;;;;;;;4.60;100.00;102294.69;4935469;28;20089;-73
2024/02/02 06:47:21;;;;;;;24.25;9.88;;;;;;;4.61;100.00;102282.25;4937753;28;20048;-73
2024/02/02 06:49:46;;;;;;;29.02;11.05;;;;;;;4.60;100.00;102280.59;4932375;28;20036;-74
2024/02/02 06:52:13;;;;;;;26.75;11.48;;;;;;;4.57;100.00;102271.19;4940803;28;20489;-73
2024/02/02 06:54:39;;;;;;;25.70;11.40;;;;;;;4.59;100.00;102263.84;4919148;29;20028;-73
2024/02/02 06:57:05;;;;;;;27.88;11.48;;;;;;;4.61;100.00;102271.63;4920601;29;20035;-73
2024/02/02 06:59:31;;;;;;;32.60;10.98;;;;;;;4.60;100.00;102262.00;4919891;29;20104;-73
2024/02/02 07:01:58;;;;;;;29.95;11.65;;;;;;;4.60;100.00;102262.84;4921923;28;20062;-73
2024/02/02 07:04:24;;;;;;;29.88;12.35;;;;;;;4.61;100.00;102256.53;4934650;28;20063;-73
2024/02/02 07:06:50;;;;;;;23.98;11.15;;;;;;;4.61;100.00;102261.84;4940120;28;20053;-74
2024/02/02 07:09:19;;;;;;;28.98;11.98;;;;;;;4.63;100.00;102246.53;4936602;28;20061;-74
2024/02/02 07:12:03;;;;;;;32.75;11.48;;;;;;;4.62;100.00;102238.78;4939089;28;20042;-73
2024/02/02 07:14:48;;;;;;;30.33;11.10;;;;;;;4.63;100.00;102230.63;4931806;28;20031;-73
2024/02/02 07:17:16;;;;;;;;;;;;;;;4.65;100.00;102233.88;4923379;29;20055;-73
2024/02/02 07:19:42;;;;;;;25.88;10.68;;;;;;;4.67;100.00;102244.31;4932470;28;19914;-73
2024/02/02 07:22:34;;;;;;;28.15;11.73;;;;;;;4.69;100.00;102244.13;4937463;28;20038;-73
2024/02/02 07:25:00;;;;;;;24.70;11.25;;;;;;;4.71;100.00;102250.06;4931252;28;20078;-73
2024/02/02 07:27:48;;;;;;;23.15;11.48;;;;;;;4.72;100.00;102233.94;4918700;29;20780;-73
2024/02/02 07:30:44;;;;;;;24.23;10.68;;;;;;;4.74;100.00;102231.09;4916287;28;20039;-73
2024/02/02 07:33:35;;;;;;;22.40;11.43;;;;;;;4.71;100.00;102232.31;4919858;29;20047;-73
2024/02/02 07:36:01;;;;;;;25.83;10.98;;;;;;;4.72;100.00;102217.19;4936745;28;20051;-72
2024/02/02 07:38:43;;;;;;;28.27;10.27;;;;;;;4.69;100.00;102194.53;4929095;28;20661;-73
2024/02/02 07:41:12;;;;;;;28.60;12.30;;;;;;;4.70;100.00;102201.47;4952665;28;20031;-72
2024/02/02 07:43:38;;;;;;;28.08;11.98;;;;;;;4.72;100.00;102219.84;4920644;29;20054;-73
2024/02/02 07:46:05;;;;;;;;;;;;;;;4.71;100.00;102204.94;4932004;23;20060;-72
2024/02/02 07:48:30;;;;;;;28.45;11.98;;;;;;;4.73;100.00;102202.91;4903426;29;19927;-73
2024/02/02 07:50:56;;;;;;;30.77;12.68;;;;;;;4.71;100.00;102215.56;4919963;29;20024;-73
2024/02/02 07:53:23;;;;;;;26.58;11.60;;;;;;;4.69;100.00;102194.53;4870888;29;20483;-72
2024/02/02 07:55:48;;;;;;;;;;;;;;;4.70;100.00;102214.75;4905086;29;20122;-72
2024/02/02 07:58:16;;;;;;;24.73;11.57;;;;;;;4.73;100.00;102198.41;4904462;29;19919;-72
2024/02/02 08:00:41;;;;;;;31.25;12.52;;;;;;;4.74;100.00;102193.94;4919559;29;20036;-72
2024/02/02 08:03:07;;;;;;;31.63;11.82;;;;;;;4.74;100.00;102199.22;4902110;29;20115;-73
2024/02/02 08:05:37;;;;;;;37.55;13.02;;;;;;;4.76;100.00;102186.59;4901321;29;20037;-72
2024/02/02 08:08:03;;;;;;;27.70;11.77;;;;;;;4.76;100.00;102181.31;4914574;28;20063;-73
2024/02/02 08:10:29;;;;;;;29.13;12.38;;;;;;;4.75;100.00;102190.28;4901788;29;20044;-72
2024/02/02 08:12:55;;;;;;;32.92;13.38;;;;;;;4.77;100.00;102188.25;4901697;29;20050;-73
2024/02/02 08:15:21;;;;;;;26.67;13.90;;;;;;;4.78;100.00;102195.19;4921644;29;20036;-73
2024/02/02 08:17:47;;;;;;;28.42;12.70;;;;;;;4.78;100.00;102179.25;4903975;29;20586;-71
2024/02/02 08:20:14;;;;;;;19.98;11.70;;;;;;;4.78;100.00;102181.91;4919286;29;20809;-73
2024/02/02 08:22:43;;;;;;;30.15;12.30;;;;;;;4.77;100.00;102175.78;4902507;29;20041;-72
2024/02/02 08:25:10;;;;;;;28.98;11.77;;;;;;;4.74;100.00;102175.34;4900459;29;20036;-73
2024/02/02 08:27:37;;;;;;;26.05;13.68;;;;;;;4.71;100.00;102173.91;4902964;29;20092;-73
2024/02/02 08:30:05;;;;;;;25.80;12.13;;;;;;;4.72;100.00;102174.72;4881602;29;20028;-72
2024/02/02 08:32:31;;;;;;;29.10;11.80;;;;;;;4.73;100.00;102168.41;4904241;29;20036;-73
2024/02/02 08:34:57;;;;;;;29.27;12.85;;;;;;;4.73;100.00;102177.19;4899199;29;20028;-73
2024/02/02 08:37:22;;;;;;;26.73;12.30;;;;;;;4.74;100.00;102180.66;4901895;29;20044;-73
2024/02/02 08:39:49;;;;;;;28.35;12.10;;;;;;;4.73;100.00;102166.56;4902970;29;20088;-73
2024/02/02 08:42:21;;;;;;;27.48;12.02;;;;;;;4.71;100.00;102162.47;4903010;29;20040;-73
2024/02/02 08:44:48;;;;;;;31.65;12.02;;;;;;;4.70;100.00;102160.84;4887968;29;20036;-73
2024/02/02 08:47:13;;;;;;;28.73;12.52;;;;;;;4.68;100.00;102163.72;4898709;29;20071;-73
2024/02/02 08:49:46;;;;;;;26.45;12.70;;;;;;;4.68;100.00;102166.34;4900110;29;20257;-73
2024/02/02 08:52:12;;;;;;;;;;;;;;;4.67;100.00;102159.38;4902758;29;20032;-72
2024/02/02 08:54:44;;;;;;;32.55;12.52;;;;;;;4.64;100.00;102168.56;4904579;29;19950;-73
2024/02/02 08:57:22;;;;;;;;;;;;;;;4.67;100.00;102154.09;4902073;29;20151;-73
2024/02/02 08:59:52;;;;;;;32.65;13.23;;;;;;;4.66;100.00;102150.59;4916016;29;19923;-72
2024/02/02 09:02:54;;;;;;;27.40;12.63;;;;;;;4.66;100.00;102150.59;4902493;29;20039;-72
2024/02/02 09:05:23;;;;;;;22.85;11.93;;;;;;;4.71;100.00;102151.88;4878529;29;20056;-72
2024/02/02 09:07:52;;;;;;;26.58;11.48;;;;;;;4.71;100.00;102143.91;4904122;29;20530;-73
2024/02/02 09:10:31;;;;;;;26.88;11.27;;;;;;;4.72;100.00;102142.88;4904510;29;20052;-73
2024/02/02 09:13:01;;;;;;;26.95;11.02;;;;;;;4.73;100.00;102141.88;4902475;29;20127;-74
2024/02/02 09:15:31;;;;;;;26.23;12.40;;;;;;;4.74;100.00;102147.00;4879967;29;20248;-73
2024/02/02 09:17:57;;;;;;;33.22;12.63;;;;;;;4.77;100.00;102135.97;4919819;29;20043;-73
2024/02/02 09:20:36;;;;;;;28.15;12.98;;;;;;;4.80;100.00;102134.75;4904984;29;20035;-73
2024/02/02 09:23:05;;;;;;;31.65;12.07;;;;;;;4.80;100.00;102124.94;4903707;29;20127;-72
2024/02/02 09:25:43;;;;;;;38.35;12.15;;;;;;;4.83;100.00;102118.44;4900053;29;20781;-72
2024/02/02 09:28:37;;;;;;;27.85;11.95;;;;;;;4.84;100.00;102115.59;4901752;29;20052;-72
2024/02/02 09:31:05;;;;;;;30.67;12.38;;;;;;;4.87;100.00;102117.03;4884826;29;20110;-73
2024/02/02 09:33:46;;;;;;;35.53;12.05;;;;;;;4.89;100.00;102105.22;4913880;29;20486;-73
2024/02/02 09:36:12;;;;;;;31.70;12.52;;;;;;;4.89;100.00;102112.34;4888437;29;20064;-73
2024/02/02 09:38:38;;;;;;;25.10;12.40;;;;;;;4.92;100.00;102106.63;4918539;29;20040;-72
2024/02/02 09:41:04;;;;;;;32.35;13.32;;;;;;;4.93;100.00;102106.44;4904749;29;20998;-73
2024/02/02 09:43:53;;;;;;;30.55;13.40;;;;;;;4.95;100.00;102114.22;4921565;29;20044;-71
2024/02/02 09:46:25;;;;;;;33.40;13.32;;;;;;;4.95;100.00;102100.94;4919763;29;20726;-73
2024/02/02 09:49:11;;;;;;;30.05;13.35;;;;;;;4.97;100.00;102096.25;4920865;29;20044;-73
2024/02/02 09:51:58;;;;;;;26.80;12.45;;;;;;;5.00;100.00;102101.16;4920492;29;20032;-71
2024/02/02 09:54:38;;;;;;;32.05;13.52;;;;;;;5.02;100.00;102099.13;4924220;29;20063;-73
2024/02/02 09:57:14;;;;;;;31.42;14.05;;;;;;;5.04;100.00;102086.47;4906789;29;20053;-73
2024/02/02 10:00:00;;;;;;;32.63;14.80;;;;;;;5.06;100.00;102094.22;4883696;29;20107;-73
2024/02/02 10:03:01;;;;;;;32.83;14.02;;;;;;;5.07;100.00;102099.31;4904655;29;20063;-71
2024/02/02 10:05:38;;;;;;;36.30;14.18;;;;;;;5.10;100.00;102096.28;4888151;29;20052;-72
2024/02/02 10:08:17;;;;;;;29.10;13.82;;;;;;;5.11;100.00;102099.75;4914113;29;20195;-73
2024/02/02 10:11:10;;;;;;;35.92;13.65;;;;;;;5.16;100.00;102090.19;4907516;29;20138;-72
2024/02/02 10:13:52;;;;;;;30.48;12.77;;;;;;;5.23;100.00;102087.53;4906849;29;20036;-72
2024/02/02 10:16:31;;;;;;;28.08;12.55;;;;;;;5.28;100.00;102081.59;4905805;29;20532;-71
2024/02/02 10:19:28;;;;;;;27.85;13.38;;;;;;;5.31;100.00;102070.59;4891477;29;20043;-72
2024/02/02 10:22:00;;;;;;;22.98;11.93;;;;;;;5.36;100.00;102068.16;4922036;29;20047;-72
2024/02/02 10:24:59;;;;;;;27.92;11.98;;;;;;;5.40;100.00;102066.72;4906771;29;20045;-72
2024/02/02 10:27:54;;;;;;;28.10;10.73;;;;;;;5.40;100.00;102066.72;4904214;29;20115;-72
2024/02/02 10:31:04;;;;;;;36.03;12.55;;;;;;;5.41;100.00;102057.72;4856935;29;20044;-72
2024/02/02 10:33:52;;;;;;;28.50;10.63;;;;;;;5.40;100.00;102058.75;4876500;29;20049;-73
2024/02/02 10:36:40;;;;;;;31.48;11.57;;;;;;;5.39;100.00;102049.94;4901104;29;20040;-71
2024/02/02 10:39:45;;;;;;;27.67;10.88;;;;;;;5.41;100.00;102063.03;4905450;29;20051;-71
2024/02/02 10:42:29;;;;;;;25.00;10.90;;;;;;;5.42;100.00;102056.72;4905470;29;20043;-71
2024/02/02 10:45:08;;;;;;;29.17;11.38;;;;;;;5.42;100.00;102059.38;4910247;29;20107;-71
2024/02/02 10:48:11;;;;;;;28.02;11.27;;;;;;;5.44;100.00;102052.81;4918481;29;20071;-72
2024/02/02 10:50:53;;;;;;;28.35;10.48;;;;;;;5.44;100.00;102052.81;4919743;29;20032;-72
2024/02/02 10:53:33;;;;;;;28.95;11.23;;;;;;;5.47;100.00;102052.41;4906327;29;20067;-73
2024/02/02 10:56:22;;;;;;;26.60;10.90;;;;;;;5.47;100.00;102049.75;4885672;29;20057;-72
2024/02/02 10:59:02;;;;;;;27.17;10.73;;;;;;;5.52;100.00;102053.66;4914559;29;20040;-72
2024/02/02 11:01:40;;;;;;;28.33;11.32;;;;;;;5.54;100.00;102054.25;4917474;29;20089;-72
2024/02/02 11:04:38;;;;;;;29.65;10.18;;;;;;;5.57;100.00;102061.84;4919560;29;20557;-72
2024/02/02 11:07:24;;;;;;;28.08;11.20;;;;;;;5.55;100.00;102038.09;4905136;29;20055;-71
2024/02/02 11:09:57;;;;;;;29.42;10.00;;;;;;;5.56;100.00;102039.75;4907622;29;20133;-71
2024/02/02 11:12:40;;;;;;;24.88;10.48;;;;;;;5.59;100.00;102028.72;4891375;29;20187;-72
2024/02/02 11:15:33;;;;;;;29.20;10.80;;;;;;;5.63;100.00;102031.78;4919012;29;20028;-71
2024/02/02 11:18:37;;;;;;;25.05;9.80;;;;;;;5.62;100.00;102030.97;4904673;29;20051;-72
2024/02/02 11:21:06;;;;;;;27.02;10.07;;;;;;;5.63;100.00;102032.59;4894566;29;20510;-72
2024/02/02 11:23:57;;;;;;;24.38;9.48;;;;;;;5.66;100.00;102029.53;4919772;29;20103;-73
2024/02/02 11:26:37;;;;;;;23.30;8.52;;;;;;;5.64;100.00;102031.56;4905874;29;20511;-73